createdAt,value
2019-01-31T00:05:59.640Z,0.82
2019-01-31T00:11:16.022Z,0.84
2019-01-31T00:17:07.296Z,0.82
2019-01-31T00:23:02.406Z,0.80
2019-01-31T00:28:45.453Z,0.80
2019-01-31T00:34:18.422Z,0.81
2019-01-31T00:40:08.442Z,0.80
2019-01-31T00:45:47.682Z,0.77
2019-01-31T00:51:01.805Z,0.78
2019-01-31T00:56:48.533Z,0.83
2019-01-31T01:02:51.313Z,0.78
2019-01-31T01:08:22.099Z,0.76
2019-01-31T01:13:38.098Z,0.79
2019-01-31T01:19:39.173Z,0.78
2019-01-31T01:25:29.908Z,0.75
2019-01-31T01:30:58.303Z,0.75
2019-01-31T01:36:11.545Z,0.75
2019-01-31T01:42:06.455Z,0.77
2019-01-31T01:47:21.923Z,0.77
2019-01-31T01:53:07.947Z,0.77
2019-01-31T01:58:29.530Z,0.80
2019-01-31T02:04:24.716Z,0.86
2019-01-31T02:10:26.034Z,0.89
2019-01-31T02:16:13.304Z,0.89
2019-01-31T02:22:24.457Z,0.88
2019-01-31T02:28:13.671Z,0.86
2019-01-31T02:34:22.164Z,0.81
2019-01-31T02:40:09.886Z,0.80
2019-01-31T02:46:06.104Z,0.85
2019-01-31T02:51:47.986Z,0.80
2019-01-31T02:57:27.675Z,0.82
2019-01-31T03:02:54.189Z,0.78
2019-01-31T03:08:26.292Z,0.75
2019-01-31T03:14:09.904Z,0.76
2019-01-31T03:19:55.847Z,0.79
2019-01-31T03:25:36.411Z,0.83
2019-01-31T03:31:14.476Z,0.90
2019-01-31T03:36:52.563Z,0.87
2019-01-31T03:43:11.792Z,0.89
2019-01-31T03:48:57.383Z,0.90
2019-01-31T03:55:07.208Z,0.92
2019-01-31T04:00:42.548Z,0.97
2019-01-31T04:06:11.041Z,0.98
2019-01-31T04:11:13.536Z,0.96
2019-01-31T04:16:15.830Z,1.01
2019-01-31T04:21:18.106Z,1.05
2019-01-31T04:26:20.836Z,1.09
2019-01-31T04:31:23.703Z,1.16
2019-01-31T04:36:27.193Z,1.13
2019-01-31T04:41:30.187Z,1.12
2019-01-31T04:46:32.976Z,1.19
2019-01-31T04:51:36.539Z,1.21
2019-01-31T04:56:39.087Z,1.23
2019-01-31T05:01:41.369Z,1.21
2019-01-31T05:06:43.629Z,1.16
2019-01-31T05:11:46.552Z,1.12
2019-01-31T05:16:49.031Z,1.10
2019-01-31T05:21:51.845Z,1.14
2019-01-31T05:26:54.931Z,1.16
2019-01-31T05:31:59.388Z,1.15
2019-01-31T05:37:02.097Z,1.12
2019-01-31T05:42:05.198Z,1.12
2019-01-31T05:47:09.876Z,1.11
2019-01-31T05:52:12.220Z,1.10
2019-01-31T05:57:14.512Z,1.08
2019-01-31T06:02:16.764Z,1.04
2019-01-31T06:07:19.263Z,1.05
2019-01-31T06:12:21.601Z,1.05
2019-01-31T06:17:23.930Z,1.06
2019-01-31T06:22:26.328Z,1.06
2019-01-31T06:27:28.721Z,1.09
2019-01-31T06:32:30.971Z,1.09
2019-01-31T06:37:33.702Z,1.08
2019-01-31T06:42:36.441Z,1.11
2019-01-31T06:47:38.935Z,1.15
2019-01-31T06:52:42.031Z,1.16
2019-01-31T06:57:44.213Z,1.20
2019-01-31T07:02:47.534Z,1.25
2019-01-31T07:07:52.078Z,1.31
2019-01-31T07:12:55.188Z,1.37
2019-01-31T07:17:57.722Z,1.38
2019-01-31T07:23:00.019Z,1.37
2019-01-31T07:28:02.963Z,1.44
2019-01-31T07:33:05.228Z,1.53
2019-01-31T07:38:07.826Z,1.61
2019-01-31T07:43:10.874Z,1.64
2019-01-31T07:48:13.178Z,1.67
2019-01-31T07:53:15.747Z,1.69
2019-01-31T07:58:20.492Z,1.67
2019-01-31T08:03:22.268Z,1.72
2019-01-31T08:08:24.879Z,1.74
2019-01-31T08:13:27.346Z,1.77
2019-01-31T08:18:29.654Z,1.76
2019-01-31T08:23:32.144Z,1.80
2019-01-31T08:28:34.681Z,1.85
2019-01-31T08:33:37.023Z,1.90
2019-01-31T08:38:39.291Z,1.96
2019-01-31T08:43:42.293Z,1.95
2019-01-31T08:48:45.216Z,1.85
2019-01-31T08:53:47.457Z,1.80
2019-01-31T08:58:49.693Z,1.73
2019-01-31T09:03:51.949Z,1.78
2019-01-31T09:08:54.633Z,1.86
2019-01-31T09:13:57.402Z,1.88
2019-01-31T09:18:59.690Z,1.96
2019-01-31T09:24:50.147Z,2.07
2019-01-31T09:30:15.745Z,2.18
2019-01-31T09:35:31.363Z,2.25
2019-01-31T09:41:16.655Z,2.19
2019-01-31T09:46:31.987Z,2.11
2019-01-31T09:52:27.915Z,2.10
2019-01-31T09:58:22.063Z,2.13
2019-01-31T10:04:15.426Z,2.27
2019-01-31T10:10:05.295Z,2.50
2019-01-31T10:15:40.942Z,2.87
2019-01-31T10:21:41.053Z,3.46
2019-01-31T10:27:15.794Z,4.24
2019-01-31T10:33:18.197Z,5.14
2019-01-31T10:38:48.130Z,6.00
2019-01-31T10:44:59.816Z,7.16
2019-01-31T10:50:49.150Z,7.85
2019-01-31T10:56:45.196Z,8.39
2019-01-31T11:02:40.421Z,8.54
2019-01-31T11:08:05.589Z,8.86
2019-01-31T11:13:59.812Z,9.21
2019-01-31T11:19:36.136Z,9.30
2019-01-31T11:25:14.380Z,9.23
2019-01-31T11:30:41.577Z,9.00
2019-01-31T11:37:08.821Z,9.32
2019-01-31T11:43:17.039Z,9.60
2019-01-31T11:48:37.614Z,9.01
2019-01-31T11:54:26.933Z,8.92
2019-01-31T11:59:29.264Z,9.15
2019-01-31T12:04:31.784Z,9.06
2019-01-31T12:09:38.678Z,9.24
2019-01-31T12:21:03.636Z,9.10
2019-01-31T12:26:06.385Z,8.90
2019-01-31T12:31:09.706Z,8.83
2019-01-31T12:36:12.712Z,8.69
2019-01-31T12:41:15.484Z,8.20
2019-01-31T12:46:18.298Z,8.12
2019-01-31T12:51:21.193Z,7.79
2019-01-31T12:56:23.735Z,7.54
2019-01-31T13:01:26.294Z,7.08
2019-01-31T13:13:18.383Z,6.85
2019-01-31T13:18:21.179Z,7.03
2019-01-31T13:23:24.094Z,7.02
2019-01-31T13:28:26.614Z,6.93
2019-01-31T13:33:29.579Z,6.70
2019-01-31T13:38:34.542Z,6.59
2019-01-31T13:43:37.632Z,6.48
2019-01-31T13:48:40.120Z,6.46
2019-01-31T13:53:42.690Z,6.23
2019-01-31T13:58:55.420Z,6.28
2019-01-31T14:03:58.065Z,6.32
2019-01-31T14:09:00.992Z,6.17
2019-01-31T14:14:09.228Z,5.99
2019-01-31T14:19:09.716Z,5.99
2019-01-31T14:24:12.507Z,5.86
2019-01-31T14:29:15.119Z,5.77
2019-01-31T14:34:30.213Z,5.73
2019-01-31T14:39:32.496Z,5.65
2019-01-31T14:44:35.268Z,5.65
2019-01-31T14:49:39.302Z,5.63
2019-01-31T14:54:42.128Z,5.68
2019-01-31T14:59:44.380Z,5.74
2019-01-31T15:04:46.629Z,5.83
2019-01-31T15:09:48.915Z,5.84
2019-01-31T15:14:51.286Z,5.82
2019-01-31T15:19:53.737Z,5.75
2019-01-31T15:24:56.490Z,5.66
2019-01-31T15:29:59.261Z,5.58
2019-01-31T15:35:02.007Z,5.54
2019-01-31T15:40:10.467Z,5.49
2019-01-31T15:45:13.004Z,5.41
2019-01-31T15:50:15.727Z,5.32
2019-01-31T15:55:19.350Z,5.31
2019-01-31T16:00:38.641Z,5.33
2019-01-31T16:05:41.161Z,5.30
2019-01-31T16:10:44.125Z,5.25
2019-01-31T16:15:47.662Z,5.19
2019-01-31T16:20:50.737Z,5.11
2019-01-31T16:25:53.781Z,5.05
2019-01-31T16:30:56.363Z,4.95
2019-01-31T16:35:58.740Z,4.88
2019-01-31T16:41:01.218Z,4.77
2019-01-31T16:46:09.882Z,4.69
2019-01-31T16:51:12.484Z,4.59
2019-01-31T16:56:16.186Z,4.51
2019-01-31T17:01:19.029Z,4.44
2019-01-31T17:06:24.185Z,4.40
2019-01-31T17:11:26.746Z,4.28
2019-01-31T17:16:29.645Z,4.19
2019-01-31T17:21:32.075Z,4.10
2019-01-31T17:26:34.334Z,4.02
2019-01-31T17:31:36.905Z,3.99
2019-01-31T17:36:39.125Z,3.94
2019-01-31T17:41:41.345Z,3.90
2019-01-31T17:46:43.539Z,3.83
2019-01-31T17:51:46.375Z,3.75
2019-01-31T17:56:53.397Z,3.72
2019-01-31T18:01:56.128Z,3.69
2019-01-31T18:06:58.874Z,3.64
2019-01-31T18:12:21.004Z,3.59
2019-01-31T18:17:23.524Z,3.54
2019-01-31T18:22:26.949Z,3.49
2019-01-31T18:27:29.438Z,3.42
2019-01-31T18:32:32.296Z,3.36
2019-01-31T18:37:35.544Z,3.22
2019-01-31T18:42:38.426Z,3.19
2019-01-31T18:47:42.032Z,3.17
2019-01-31T18:52:45.717Z,3.18
2019-01-31T18:57:48.356Z,3.17
2019-01-31T19:02:51.383Z,3.13
2019-01-31T19:07:54.262Z,3.12
2019-01-31T19:12:58.624Z,3.10
2019-01-31T19:18:06.022Z,3.02
2019-01-31T19:23:08.101Z,3.00
2019-01-31T19:28:13.100Z,2.96
2019-01-31T19:33:17.026Z,2.91
2019-01-31T19:38:20.018Z,2.90
2019-01-31T19:43:25.291Z,2.87
2019-01-31T19:48:30.103Z,2.83
2019-01-31T19:53:32.882Z,2.79
2019-01-31T19:58:35.266Z,2.73
2019-01-31T20:03:37.450Z,2.67
2019-01-31T20:08:42.482Z,2.62
2019-01-31T20:13:45.027Z,2.57
2019-01-31T20:18:47.540Z,2.51
2019-01-31T20:23:49.794Z,2.42
2019-01-31T20:28:53.614Z,2.35
2019-01-31T20:33:56.367Z,2.33
2019-01-31T20:39:06.955Z,2.32
2019-01-31T20:44:11.139Z,2.27
2019-01-31T20:49:13.952Z,2.23
2019-01-31T20:54:16.127Z,2.22
2019-01-31T20:59:18.731Z,2.18
2019-01-31T21:04:21.747Z,2.14
2019-01-31T21:09:24.384Z,2.11
2019-01-31T21:14:27.343Z,2.07
2019-01-31T21:19:30.684Z,2.04
2019-01-31T21:24:33.211Z,2.01
2019-01-31T21:29:35.590Z,1.97
2019-01-31T21:34:37.855Z,1.92
2019-01-31T21:39:40.037Z,1.84
2019-01-31T21:44:42.453Z,1.82
2019-01-31T21:49:45.036Z,1.79
2019-01-31T21:54:48.000Z,1.75
2019-01-31T21:59:50.779Z,1.76
2019-01-31T22:04:53.685Z,1.74
2019-01-31T22:09:56.186Z,1.71
2019-01-31T22:14:58.783Z,1.66
2019-01-31T22:20:02.095Z,1.64
2019-01-31T22:25:07.544Z,1.60
2019-01-31T22:30:17.867Z,1.59
2019-01-31T22:35:21.031Z,1.57
2019-01-31T22:40:23.313Z,1.49
2019-01-31T22:45:25.832Z,1.45
2019-01-31T22:50:28.042Z,1.42
2019-01-31T22:55:30.572Z,1.39
2019-01-31T23:01:23.765Z,1.35
2019-01-31T23:06:27.058Z,1.28
2019-01-31T23:11:29.455Z,1.21
2019-01-31T23:16:32.047Z,1.19
2019-01-31T23:21:35.393Z,1.17
2019-01-31T23:26:38.371Z,1.13
2019-01-31T23:31:41.643Z,1.09
2019-01-31T23:36:44.465Z,1.06
2019-01-31T23:41:47.080Z,1.02
2019-01-31T23:46:49.332Z,0.99
2019-01-31T23:51:52.740Z,0.96
2019-01-31T23:56:55.259Z,0.93
